createdAt,value
2018-03-01T00:00:13.636Z,16.30
2018-03-01T00:01:13.628Z,14.40
2018-03-01T00:02:13.647Z,16.70
2018-03-01T00:03:13.631Z,16.80
2018-03-01T00:04:13.634Z,17.70
2018-03-01T00:05:13.627Z,15.40
2018-03-01T00:06:13.621Z,17.20
2018-03-01T00:07:13.628Z,15.70
2018-03-01T00:08:14.516Z,21.50
2018-03-01T00:09:13.626Z,20.30
2018-03-01T00:10:13.617Z,19.20
2018-03-01T00:11:13.627Z,19.30
2018-03-01T00:12:13.617Z,16.30
2018-03-01T00:13:13.614Z,16.80
2018-03-01T00:14:13.615Z,17.70
2018-03-01T00:15:13.612Z,16.90
2018-03-01T00:16:13.646Z,16.90
2018-03-01T00:17:13.601Z,14.50
2018-03-01T00:18:13.614Z,14.00
2018-03-01T00:19:13.609Z,19.00
2018-03-01T00:20:13.620Z,16.70
2018-03-01T00:21:13.605Z,17.20
2018-03-01T00:22:13.596Z,18.70
2018-03-01T00:23:13.598Z,21.20
2018-03-01T00:24:13.599Z,19.50
2018-03-01T00:25:13.621Z,19.20
2018-03-01T00:26:13.595Z,17.30
2018-03-01T00:27:13.596Z,18.30
2018-03-01T00:28:13.588Z,14.50
2018-03-01T00:29:13.657Z,15.90
2018-03-01T00:30:13.587Z,21.60
2018-03-01T00:31:13.594Z,19.80
2018-03-01T00:32:13.584Z,17.40
2018-03-01T00:33:13.592Z,19.80
2018-03-01T00:34:13.593Z,14.50
2018-03-01T00:35:13.581Z,17.90
2018-03-01T00:36:13.581Z,17.10
2018-03-01T00:37:13.628Z,16.00
2018-03-01T00:38:13.563Z,17.50
2018-03-01T00:39:13.568Z,18.80
2018-03-01T00:40:13.578Z,25.60
2018-03-01T00:41:13.568Z,22.50
2018-03-01T00:42:13.573Z,17.00
2018-03-01T00:43:13.576Z,15.90
2018-03-01T00:44:13.565Z,15.70
2018-03-01T00:45:13.562Z,16.60
2018-03-01T00:46:13.593Z,17.70
2018-03-01T00:47:13.560Z,19.60
2018-03-01T00:48:13.573Z,17.00
2018-03-01T00:49:13.567Z,13.50
2018-03-01T00:50:13.561Z,19.10
2018-03-01T00:51:13.547Z,14.90
2018-03-01T00:52:13.547Z,19.20
2018-03-01T00:53:13.548Z,18.70
2018-03-01T00:54:13.553Z,17.80
2018-03-01T00:55:13.547Z,15.20
2018-03-01T00:56:13.545Z,23.20
2018-03-01T00:57:13.541Z,18.60
2018-03-01T00:58:13.546Z,16.40
2018-03-01T00:59:13.538Z,16.20
2018-03-01T01:00:13.554Z,16.80
2018-03-01T01:01:13.554Z,19.50
2018-03-01T01:02:13.574Z,21.90
2018-03-01T01:03:13.534Z,22.30
2018-03-01T01:04:13.531Z,19.70
2018-03-01T01:05:13.527Z,19.50
2018-03-01T01:06:13.537Z,19.40
2018-03-01T01:07:13.543Z,15.70
2018-03-01T01:08:13.523Z,18.40
2018-03-01T01:09:13.527Z,19.50
2018-03-01T01:10:13.528Z,25.30
2018-03-01T01:11:13.552Z,17.10
2018-03-01T01:12:13.540Z,19.50
2018-03-01T01:13:13.519Z,17.20
2018-03-01T01:14:13.507Z,15.80
2018-03-01T01:15:13.510Z,18.60
2018-03-01T01:16:13.514Z,17.70
2018-03-01T01:17:13.538Z,17.90
2018-03-01T01:18:13.521Z,21.10
2018-03-01T01:19:13.510Z,17.30
2018-03-01T01:20:13.539Z,19.60
2018-03-01T01:21:13.505Z,22.20
2018-03-01T01:22:13.507Z,18.20
2018-03-01T01:23:13.515Z,19.20
2018-03-01T01:24:13.542Z,20.10
2018-03-01T01:25:13.492Z,22.30
2018-03-01T01:26:13.490Z,20.40
2018-03-01T01:27:13.538Z,20.40
2018-03-01T01:28:13.499Z,20.20
2018-03-01T01:29:13.503Z,16.10
2018-03-01T01:30:13.494Z,22.70
2018-03-01T01:31:13.508Z,21.60
2018-03-01T01:32:13.489Z,18.70
2018-03-01T01:33:13.528Z,19.70
2018-03-01T01:34:13.488Z,22.20
2018-03-01T01:35:13.499Z,17.30
2018-03-01T01:36:13.483Z,21.00
2018-03-01T01:37:13.486Z,15.20
2018-03-01T01:38:13.475Z,18.80
2018-03-01T01:39:13.486Z,20.40
2018-03-01T01:40:13.510Z,16.00
2018-03-01T01:41:13.480Z,20.70
2018-03-01T01:42:13.518Z,20.20
2018-03-01T01:43:13.485Z,21.40
2018-03-01T01:44:13.472Z,18.10
2018-03-01T01:45:13.469Z,22.80
2018-03-01T01:46:13.488Z,17.40
2018-03-01T01:47:13.469Z,18.60
2018-03-01T01:48:13.481Z,18.60
2018-03-01T01:49:13.466Z,18.70
2018-03-01T01:50:13.457Z,18.70
2018-03-01T01:51:13.451Z,19.70
2018-03-01T01:52:13.462Z,22.20
2018-03-01T01:53:13.454Z,20.00
2018-03-01T01:54:13.463Z,18.30
2018-03-01T01:55:13.502Z,20.40
2018-03-01T01:56:13.448Z,19.10
2018-03-01T01:57:13.456Z,17.80
2018-03-01T01:58:13.449Z,19.60
2018-03-01T01:59:13.467Z,19.30
2018-03-01T02:00:14.003Z,19.60
2018-03-01T02:01:13.458Z,21.40
2018-03-01T02:02:13.437Z,17.90
2018-03-01T02:03:13.436Z,20.60
2018-03-01T02:04:13.438Z,21.60
2018-03-01T02:05:13.435Z,14.80
2018-03-01T02:06:13.439Z,19.90
2018-03-01T02:07:13.466Z,22.80
2018-03-01T02:08:13.426Z,20.20
2018-03-01T02:09:13.454Z,20.20
2018-03-01T02:10:13.434Z,22.70
2018-03-01T02:11:13.434Z,20.50
2018-03-01T02:12:13.439Z,19.00
2018-03-01T02:13:13.504Z,18.60
2018-03-01T02:14:13.419Z,26.20
2018-03-01T02:15:13.421Z,20.30
2018-03-01T02:16:13.413Z,21.80
2018-03-01T02:17:13.411Z,17.30
2018-03-01T02:18:13.419Z,19.50
2018-03-01T02:19:13.423Z,17.10
2018-03-01T02:20:13.416Z,18.50
2018-03-01T02:21:13.427Z,19.40
2018-03-01T02:22:13.410Z,20.30
2018-03-01T02:23:13.411Z,15.20
2018-03-01T02:24:13.416Z,18.10
2018-03-01T02:25:13.413Z,19.40
2018-03-01T02:26:13.411Z,20.60
2018-03-01T02:27:13.406Z,19.90
2018-03-01T02:28:13.400Z,21.50
2018-03-01T02:29:13.396Z,22.20
2018-03-01T02:30:13.396Z,19.50
2018-03-01T02:31:13.403Z,21.80
2018-03-01T02:32:13.388Z,23.80
2018-03-01T02:33:13.410Z,21.10
2018-03-01T02:34:13.394Z,21.30
2018-03-01T02:35:13.401Z,19.30
2018-03-01T02:36:13.393Z,18.70
2018-03-01T02:37:13.395Z,18.60
2018-03-01T02:38:13.403Z,17.60
2018-03-01T02:39:13.376Z,20.80
2018-03-01T02:40:13.386Z,20.60
2018-03-01T02:41:13.381Z,21.60
2018-03-01T02:42:13.388Z,21.40
2018-03-01T02:43:13.387Z,17.50
2018-03-01T02:44:13.394Z,21.50
2018-03-01T02:45:13.380Z,20.40
2018-03-01T02:46:13.408Z,21.60
2018-03-01T02:47:13.388Z,21.40
2018-03-01T02:48:13.415Z,21.00
2018-03-01T02:49:13.404Z,23.30
2018-03-01T02:50:13.369Z,19.20
2018-03-01T02:51:13.359Z,17.00
2018-03-01T02:52:13.358Z,17.70
2018-03-01T02:53:13.357Z,19.50
2018-03-01T02:54:13.374Z,23.70
2018-03-01T02:55:13.369Z,22.00
2018-03-01T02:56:13.357Z,22.30
2018-03-01T02:57:13.388Z,20.10
2018-03-01T02:58:13.399Z,22.00
2018-03-01T02:59:13.356Z,20.60
2018-03-01T03:00:13.378Z,18.90
2018-03-01T03:01:13.373Z,15.00
2018-03-01T03:02:13.351Z,16.70
2018-03-01T03:03:13.385Z,23.30
2018-03-01T03:04:13.359Z,20.80
2018-03-01T03:05:13.347Z,19.30
2018-03-01T03:06:13.336Z,19.50
2018-03-01T03:07:13.353Z,20.20
2018-03-01T03:08:13.349Z,21.80
2018-03-01T03:09:13.343Z,21.50
2018-03-01T03:10:13.355Z,19.00
2018-03-01T03:11:13.340Z,20.30
2018-03-01T03:12:13.330Z,17.00
2018-03-01T03:13:13.368Z,22.50
2018-03-01T03:14:13.317Z,18.90
2018-03-01T03:15:13.326Z,18.70
2018-03-01T03:16:13.343Z,20.70
2018-03-01T03:17:13.375Z,20.80
2018-03-01T03:18:13.333Z,21.20
2018-03-01T03:19:13.327Z,20.60
2018-03-01T03:20:13.318Z,21.60
2018-03-01T03:21:13.315Z,23.50
2018-03-01T03:22:13.327Z,20.40
2018-03-01T03:23:13.315Z,18.20
2018-03-01T03:24:13.339Z,20.50
2018-03-01T03:25:13.299Z,20.20
2018-03-01T03:26:13.302Z,22.70
2018-03-01T03:27:13.317Z,17.50
2018-03-01T03:28:13.307Z,21.80
2018-03-01T03:29:13.305Z,19.70
2018-03-01T03:30:13.330Z,20.20
2018-03-01T03:31:13.300Z,19.70
2018-03-01T03:32:13.308Z,24.90
2018-03-01T03:33:13.292Z,20.40
2018-03-01T03:34:13.291Z,20.90
2018-03-01T03:35:13.300Z,21.60
2018-03-01T03:36:13.290Z,20.30
2018-03-01T03:37:13.285Z,18.60
2018-03-01T03:38:13.279Z,21.90
2018-03-01T03:39:13.285Z,18.20
2018-03-01T03:40:13.284Z,17.70
2018-03-01T03:41:13.285Z,26.70
2018-03-01T03:42:13.286Z,19.80
2018-03-01T03:43:13.269Z,18.70
2018-03-01T03:44:13.389Z,23.10
2018-03-01T03:45:13.288Z,21.50
2018-03-01T03:46:13.285Z,22.10
2018-03-01T03:47:13.288Z,17.50
2018-03-01T03:48:13.266Z,22.50
2018-03-01T03:49:13.259Z,16.50
2018-03-01T03:50:13.266Z,23.30
2018-03-01T03:51:13.261Z,22.20
2018-03-01T03:52:13.262Z,22.60
2018-03-01T03:53:13.356Z,19.00
2018-03-01T03:54:13.257Z,22.20
2018-03-01T03:55:13.255Z,19.20
2018-03-01T03:56:13.259Z,21.20
2018-03-01T03:57:13.251Z,19.60
2018-03-01T03:58:13.251Z,15.90
2018-03-01T03:59:13.247Z,23.30
2018-03-01T04:00:13.260Z,22.50
2018-03-01T04:01:13.246Z,24.80
2018-03-01T04:02:13.248Z,20.20
2018-03-01T04:03:13.292Z,24.70
2018-03-01T04:04:13.236Z,20.80
2018-03-01T04:05:13.242Z,18.00
2018-03-01T04:06:13.242Z,20.70
2018-03-01T04:07:13.236Z,20.30
2018-03-01T04:08:13.233Z,22.50
2018-03-01T04:09:13.257Z,20.20
2018-03-01T04:10:13.236Z,22.60
2018-03-01T04:11:13.228Z,17.80
2018-03-01T04:12:13.237Z,20.20
2018-03-01T04:13:13.979Z,16.40
2018-03-01T04:14:13.228Z,16.00
2018-03-01T04:15:13.223Z,20.90
2018-03-01T04:16:13.217Z,19.90
2018-03-01T04:17:13.213Z,17.60
2018-03-01T04:18:13.219Z,17.40
2018-03-01T04:19:13.214Z,14.60
2018-03-01T04:20:13.254Z,22.10
2018-03-01T04:21:13.212Z,20.60
2018-03-01T04:22:13.201Z,19.90
2018-03-01T04:23:13.215Z,21.20
2018-03-01T04:24:13.209Z,19.50
2018-03-01T04:25:13.214Z,14.60
2018-03-01T04:26:13.209Z,18.30
2018-03-01T04:27:13.196Z,22.20
2018-03-01T04:28:13.194Z,16.90
2018-03-01T04:29:13.196Z,15.00
2018-03-01T04:30:13.204Z,22.20
2018-03-01T04:31:13.201Z,19.90
2018-03-01T04:32:13.190Z,21.00
2018-03-01T04:33:13.187Z,19.00
2018-03-01T04:34:13.194Z,19.10
2018-03-01T04:35:13.190Z,19.40
2018-03-01T04:36:13.192Z,23.70
2018-03-01T04:37:13.182Z,17.20
2018-03-01T04:38:13.183Z,17.30
2018-03-01T04:39:13.179Z,22.40
2018-03-01T04:40:13.174Z,16.90
2018-03-01T04:41:13.180Z,21.20
2018-03-01T04:42:13.171Z,22.40
2018-03-01T04:43:13.167Z,20.00
2018-03-01T04:44:13.976Z,19.60
2018-03-01T04:45:13.176Z,21.60
2018-03-01T04:46:13.169Z,23.90
2018-03-01T04:47:13.170Z,18.50
2018-03-01T04:48:13.171Z,24.80
2018-03-01T04:49:13.185Z,15.60
2018-03-01T04:50:13.160Z,20.40
2018-03-01T04:51:13.154Z,20.00
2018-03-01T04:52:13.157Z,20.30
2018-03-01T04:53:13.162Z,17.50
2018-03-01T04:54:13.165Z,21.10
2018-03-01T04:55:13.157Z,16.90
2018-03-01T04:56:13.168Z,15.80
2018-03-01T04:57:13.151Z,16.90
2018-03-01T04:58:13.148Z,23.60
2018-03-01T04:59:13.162Z,19.40
2018-03-01T05:00:13.170Z,25.30
2018-03-01T05:01:13.164Z,23.70
2018-03-01T05:02:13.155Z,21.10
2018-03-01T05:03:13.138Z,23.40
2018-03-01T05:04:13.138Z,24.00
2018-03-01T05:05:13.136Z,20.70
2018-03-01T05:06:13.144Z,21.00
2018-03-01T05:07:13.156Z,24.80
2018-03-01T05:08:13.125Z,24.60
2018-03-01T05:09:13.136Z,24.10
2018-03-01T05:10:13.247Z,19.50
2018-03-01T05:11:13.175Z,20.80
2018-03-01T05:12:13.163Z,20.60
2018-03-01T05:13:13.141Z,19.90
2018-03-01T05:14:13.126Z,16.00
2018-03-01T05:15:13.158Z,21.30
2018-03-01T05:16:13.155Z,19.90
2018-03-01T05:17:13.107Z,19.60
2018-03-01T05:18:13.135Z,21.30
2018-03-01T05:19:13.116Z,20.80
2018-03-01T05:20:13.129Z,18.90
2018-03-01T05:21:13.109Z,18.60
2018-03-01T05:22:13.144Z,20.90
2018-03-01T05:23:13.110Z,19.00
2018-03-01T05:24:13.123Z,17.50
2018-03-01T05:25:13.113Z,16.70
2018-03-01T05:26:13.104Z,20.00
2018-03-01T05:27:13.101Z,20.30
2018-03-01T05:28:13.098Z,21.50
2018-03-01T05:29:13.107Z,18.60
2018-03-01T05:30:13.094Z,17.60
2018-03-01T05:31:13.114Z,21.30
2018-03-01T05:32:13.102Z,17.30
2018-03-01T05:33:13.100Z,18.00
2018-03-01T05:34:13.093Z,16.10
2018-03-01T05:35:13.088Z,18.60
2018-03-01T05:36:13.080Z,18.80
2018-03-01T05:37:13.088Z,21.90
2018-03-01T05:38:13.082Z,21.10
2018-03-01T05:39:13.074Z,25.10
2018-03-01T05:40:13.078Z,20.60
2018-03-01T05:41:13.091Z,22.80
2018-03-01T05:42:13.074Z,24.70
2018-03-01T05:43:13.076Z,22.20
2018-03-01T05:44:13.116Z,18.80
2018-03-01T05:45:13.116Z,18.40
2018-03-01T05:46:13.080Z,19.80
2018-03-01T05:47:13.081Z,21.70
2018-03-01T05:48:13.068Z,21.30
2018-03-01T05:49:13.135Z,18.40
2018-03-01T05:50:13.065Z,17.90
2018-03-01T05:51:13.059Z,17.70
2018-03-01T05:52:13.065Z,20.40
2018-03-01T05:53:13.069Z,18.50
2018-03-01T05:54:13.059Z,21.10
2018-03-01T05:55:13.060Z,24.30
2018-03-01T05:56:13.069Z,23.30
2018-03-01T05:57:13.107Z,21.40
2018-03-01T05:58:13.050Z,18.20
2018-03-01T05:59:13.053Z,21.70
2018-03-01T06:00:13.048Z,21.90
2018-03-01T06:01:13.045Z,19.20
2018-03-01T06:02:13.050Z,17.70
2018-03-01T06:03:13.044Z,22.50
2018-03-01T06:04:13.044Z,26.90
2018-03-01T06:05:13.052Z,21.10
2018-03-01T06:06:13.053Z,17.50
2018-03-01T06:07:13.051Z,19.60
2018-03-01T06:08:13.039Z,28.30
2018-03-01T06:09:13.040Z,22.60
2018-03-01T06:10:13.032Z,19.60
2018-03-01T06:11:13.040Z,23.00
2018-03-01T06:12:13.040Z,20.10
2018-03-01T06:13:13.065Z,23.00
2018-03-01T06:14:13.029Z,26.20
2018-03-01T06:15:13.026Z,32.40
2018-03-01T06:16:13.020Z,19.00
2018-03-01T06:17:13.025Z,20.70
2018-03-01T06:18:13.041Z,21.60
2018-03-01T06:19:13.020Z,27.00
2018-03-01T06:20:13.032Z,17.80
2018-03-01T06:21:13.017Z,21.50
2018-03-01T06:22:13.098Z,21.40
2018-03-01T06:23:13.025Z,18.30
2018-03-01T06:24:13.022Z,20.50
2018-03-01T06:25:13.040Z,25.40
2018-03-01T06:26:13.009Z,24.90
2018-03-01T06:27:13.014Z,26.20
2018-03-01T06:28:12.996Z,23.80
2018-03-01T06:29:13.016Z,27.30
2018-03-01T06:30:13.021Z,25.30
2018-03-01T06:31:13.016Z,21.10
2018-03-01T06:32:13.029Z,23.10
2018-03-01T06:33:13.034Z,25.10
2018-03-01T06:34:13.011Z,26.30
2018-03-01T06:35:13.006Z,17.80
2018-03-01T06:36:13.002Z,20.50
2018-03-01T06:37:12.995Z,20.10
2018-03-01T06:38:12.993Z,28.10
2018-03-01T06:39:12.993Z,28.90
2018-03-01T06:40:12.992Z,20.70
2018-03-01T06:41:12.992Z,18.00
2018-03-01T06:42:12.995Z,20.40
2018-03-01T06:43:13.002Z,24.80
2018-03-01T06:44:13.037Z,20.90
2018-03-01T06:45:12.986Z,20.20
2018-03-01T06:46:12.989Z,25.70
2018-03-01T06:47:12.985Z,18.40
2018-03-01T06:48:12.976Z,20.70
2018-03-01T06:49:13.043Z,19.50
2018-03-01T06:50:12.995Z,21.80
2018-03-01T06:51:12.978Z,19.10
2018-03-01T06:52:12.982Z,23.30
2018-03-01T06:53:13.023Z,28.10
2018-03-01T06:54:12.992Z,21.20
2018-03-01T06:55:13.003Z,23.50
2018-03-01T06:56:12.982Z,20.50
2018-03-01T06:57:12.986Z,26.20
2018-03-01T06:58:13.002Z,17.20
2018-03-01T06:59:12.970Z,18.40
2018-03-01T07:00:12.962Z,23.90
2018-03-01T07:01:12.970Z,22.10
2018-03-01T07:02:12.982Z,23.80
2018-03-01T07:03:12.967Z,23.60
2018-03-01T07:04:12.962Z,29.90
2018-03-01T07:05:12.960Z,22.60
2018-03-01T07:06:12.965Z,13.90
2018-03-01T07:07:12.976Z,14.70
2018-03-01T07:08:12.960Z,20.40
2018-03-01T07:09:12.959Z,21.60
2018-03-01T07:10:12.967Z,21.40
2018-03-01T07:11:13.039Z,23.70
2018-03-01T07:12:12.954Z,22.90
2018-03-01T07:13:12.945Z,19.70
2018-03-01T07:14:12.979Z,18.50
2018-03-01T07:15:13.011Z,19.40
2018-03-01T07:16:12.953Z,19.20
2018-03-01T07:17:12.950Z,20.70
2018-03-01T07:18:12.951Z,24.10
2018-03-01T07:19:12.956Z,22.60
2018-03-01T07:20:12.942Z,20.40
2018-03-01T07:21:12.954Z,18.90
2018-03-01T07:22:12.942Z,17.00
2018-03-01T07:23:12.944Z,19.20
2018-03-01T07:24:12.941Z,21.60
2018-03-01T07:25:12.963Z,26.00
2018-03-01T07:26:12.943Z,32.80
2018-03-01T07:27:12.943Z,22.00
2018-03-01T07:28:13.010Z,27.50
2018-03-01T07:29:12.960Z,17.40
2018-03-01T07:30:12.946Z,20.20
2018-03-01T07:31:12.942Z,18.10
2018-03-01T07:32:12.943Z,19.40
2018-03-01T07:33:12.948Z,22.50
2018-03-01T07:34:12.939Z,17.60
2018-03-01T07:35:12.951Z,15.10
2018-03-01T07:36:12.926Z,17.20
2018-03-01T07:37:12.948Z,22.50
2018-03-01T07:38:12.929Z,17.30
2018-03-01T07:39:12.957Z,23.50
2018-03-01T07:40:12.961Z,22.00
2018-03-01T07:41:12.932Z,19.00
2018-03-01T07:42:12.918Z,31.30
2018-03-01T07:43:12.976Z,25.30
2018-03-01T07:44:12.953Z,22.20
2018-03-01T07:45:12.957Z,23.50
2018-03-01T07:46:12.980Z,21.10
2018-03-01T07:47:12.937Z,21.80
2018-03-01T07:48:12.943Z,23.30
2018-03-01T07:49:12.937Z,21.70
2018-03-01T07:50:13.104Z,20.20
2018-03-01T07:51:12.952Z,22.90
2018-03-01T07:52:12.970Z,21.00
2018-03-01T07:53:12.934Z,22.20
2018-03-01T07:54:12.935Z,20.20
2018-03-01T07:55:12.938Z,27.90
2018-03-01T07:56:12.961Z,22.50
2018-03-01T07:57:12.970Z,21.00
2018-03-01T07:58:12.936Z,28.90
2018-03-01T07:59:13.071Z,36.10
2018-03-01T08:00:12.954Z,39.30
2018-03-01T08:01:12.946Z,21.70
2018-03-01T08:02:12.962Z,25.20
2018-03-01T08:03:12.969Z,31.80
2018-03-01T08:04:12.969Z,39.30
2018-03-01T08:05:12.956Z,28.90
2018-03-01T08:06:12.968Z,24.90
2018-03-01T08:07:12.967Z,24.00
2018-03-01T08:08:12.977Z,23.10
2018-03-01T08:09:12.978Z,25.30
2018-03-01T08:10:13.005Z,21.30
2018-03-01T08:11:12.997Z,21.10
2018-03-01T08:12:13.017Z,22.00
2018-03-01T08:13:13.016Z,21.40
2018-03-01T08:14:13.020Z,21.30
2018-03-01T08:15:13.043Z,34.00
2018-03-01T08:16:13.018Z,33.40
2018-03-01T08:17:13.017Z,29.60
2018-03-01T08:18:13.026Z,51.20
2018-03-01T08:19:13.030Z,61.40
2018-03-01T08:20:13.056Z,27.60
2018-03-01T08:21:13.053Z,21.30
2018-03-01T08:22:13.144Z,25.80
2018-03-01T08:23:13.053Z,22.60
2018-03-01T08:24:13.062Z,23.10
2018-03-01T08:25:13.064Z,27.30
2018-03-01T08:26:13.077Z,21.30
2018-03-01T08:27:13.069Z,32.90
2018-03-01T08:28:13.071Z,30.00
2018-03-01T08:29:13.084Z,31.40
2018-03-01T08:30:13.187Z,29.80
2018-03-01T08:31:13.084Z,25.70
2018-03-01T08:32:13.101Z,27.10
2018-03-01T08:33:13.100Z,25.30
2018-03-01T08:34:13.105Z,39.40
2018-03-01T08:35:13.127Z,29.40
2018-03-01T08:36:13.118Z,30.00
2018-03-01T08:37:13.131Z,26.40
2018-03-01T08:38:13.140Z,31.70
2018-03-01T08:39:13.133Z,29.30
2018-03-01T08:40:13.244Z,30.50
2018-03-01T08:41:13.145Z,32.60
2018-03-01T08:42:13.159Z,35.20
2018-03-01T08:43:13.168Z,25.20
2018-03-01T08:44:13.162Z,34.70
2018-03-01T08:45:13.171Z,53.20
2018-03-01T08:46:13.192Z,38.80
2018-03-01T08:47:13.201Z,27.90
2018-03-01T08:48:13.192Z,26.70
2018-03-01T08:49:13.193Z,34.20
2018-03-01T08:50:13.204Z,64.40
2018-03-01T08:51:13.201Z,25.50
2018-03-01T08:52:13.219Z,21.70
2018-03-01T08:53:13.246Z,27.70
2018-03-01T08:54:13.242Z,31.10
2018-03-01T08:55:13.243Z,28.90
2018-03-01T08:56:13.248Z,26.60
2018-03-01T08:57:13.245Z,38.80
2018-03-01T08:58:13.273Z,24.70
2018-03-01T08:59:13.271Z,24.50
2018-03-01T09:00:13.282Z,32.70
2018-03-01T09:01:13.286Z,21.50
2018-03-01T09:02:13.296Z,25.70
2018-03-01T09:03:13.355Z,37.30
2018-03-01T09:04:13.313Z,40.10
2018-03-01T09:05:13.315Z,27.40
2018-03-01T09:06:13.324Z,36.70
2018-03-01T09:07:13.340Z,36.20
2018-03-01T09:08:13.346Z,31.60
2018-03-01T09:09:13.350Z,29.60
2018-03-01T09:10:13.370Z,41.50
2018-03-01T09:11:13.380Z,31.80
2018-03-01T09:12:13.435Z,25.40
2018-03-01T09:13:13.380Z,25.60
2018-03-01T09:14:13.401Z,30.30
2018-03-01T09:15:13.404Z,23.60
2018-03-01T09:16:13.412Z,24.90
2018-03-01T09:17:13.427Z,25.70
2018-03-01T09:18:13.428Z,22.50
2018-03-01T09:19:13.441Z,23.10
2018-03-01T09:20:13.441Z,37.20
2018-03-01T09:21:13.458Z,36.90
2018-03-01T09:22:13.465Z,34.00
2018-03-01T09:23:13.468Z,43.30
2018-03-01T09:24:13.492Z,25.80
2018-03-01T09:25:13.523Z,31.60
2018-03-01T09:26:13.499Z,33.10
2018-03-01T09:27:13.522Z,33.30
2018-03-01T09:28:13.525Z,48.50
2018-03-01T09:29:13.536Z,43.30
2018-03-01T09:30:13.563Z,49.70
2018-03-01T09:31:13.560Z,47.40
2018-03-01T09:32:13.565Z,25.90
2018-03-01T09:33:13.570Z,31.10
2018-03-01T09:34:13.582Z,57.10
2018-03-01T09:35:13.589Z,51.80
2018-03-01T09:36:13.595Z,41.30
2018-03-01T09:37:13.763Z,32.60
2018-03-01T09:38:13.621Z,31.20
2018-03-01T09:39:13.627Z,22.00
2018-03-01T09:40:13.635Z,32.70
2018-03-01T09:41:13.646Z,29.20
2018-03-01T09:42:13.663Z,25.20
2018-03-01T09:43:13.665Z,24.70
2018-03-01T09:44:13.712Z,49.80
2018-03-01T09:45:13.689Z,49.90
2018-03-01T09:46:13.696Z,23.90
2018-03-01T09:47:13.710Z,23.10
2018-03-01T09:48:14.293Z,22.80
2018-03-01T09:49:13.726Z,24.70
2018-03-01T09:50:13.735Z,21.00
2018-03-01T09:51:13.746Z,22.90
2018-03-01T09:52:13.754Z,23.50
2018-03-01T09:53:13.761Z,20.30
2018-03-01T09:54:13.774Z,16.00
2018-03-01T09:55:13.793Z,21.50
2018-03-01T09:56:13.780Z,22.50
2018-03-01T09:57:13.803Z,23.00
2018-03-01T09:58:13.815Z,26.00
2018-03-01T09:59:13.821Z,21.60
2018-03-01T10:00:13.831Z,18.30
2018-03-01T10:01:13.847Z,24.40
2018-03-01T10:02:13.855Z,32.40
2018-03-01T10:03:13.876Z,38.00
2018-03-01T10:04:13.869Z,33.40
2018-03-01T10:05:13.879Z,21.50
2018-03-01T10:06:14.216Z,28.00
2018-03-01T10:07:13.946Z,21.90
2018-03-01T10:08:13.974Z,22.50
2018-03-01T10:09:13.921Z,25.10
2018-03-01T10:10:13.924Z,25.30
2018-03-01T10:11:13.949Z,20.20
2018-03-01T10:12:13.940Z,27.20
2018-03-01T10:13:13.958Z,24.10
2018-03-01T10:14:14.015Z,26.40
2018-03-01T10:15:13.993Z,44.30
2018-03-01T10:16:14.029Z,33.00
2018-03-01T10:18:14.181Z,32.30
2018-03-01T10:21:14.060Z,34.20
2018-03-01T10:22:14.429Z,19.10
2018-03-01T10:23:15.043Z,23.20
2018-03-01T10:24:14.088Z,21.50
2018-03-01T10:25:14.093Z,28.80
2018-03-01T10:27:14.707Z,18.60
2018-03-01T10:28:14.122Z,23.10
2018-03-01T10:29:14.247Z,18.70
2018-03-01T10:30:14.727Z,23.30
2018-03-01T10:31:14.254Z,23.30
2018-03-01T10:32:14.167Z,21.80
2018-03-01T10:33:14.242Z,25.00
2018-03-01T10:34:14.195Z,17.80
2018-03-01T10:35:14.611Z,18.60
2018-03-01T10:36:14.207Z,22.10
2018-03-01T10:37:14.220Z,23.20
2018-03-01T10:38:14.230Z,20.70
2018-03-01T10:39:14.245Z,20.40
2018-03-01T10:40:14.262Z,21.50
2018-03-01T10:41:14.262Z,25.60
2018-03-01T10:42:14.275Z,23.00
2018-03-01T10:43:14.296Z,21.90
2018-03-01T10:44:14.322Z,23.40
2018-03-01T10:45:14.341Z,20.60
2018-03-01T10:46:14.326Z,19.40
2018-03-01T10:47:14.374Z,17.30
2018-03-01T10:49:14.686Z,21.00
2018-03-01T10:50:14.373Z,22.50
2018-03-01T10:51:14.606Z,23.30
2018-03-01T10:52:14.401Z,25.60
2018-03-01T10:53:14.407Z,28.80
2018-03-01T10:54:14.762Z,26.20
2018-03-01T10:55:14.443Z,24.20
2018-03-01T10:56:14.442Z,19.30
2018-03-01T10:57:14.457Z,21.30
2018-03-01T10:58:14.475Z,22.20
2018-03-01T10:59:14.526Z,28.40
2018-03-01T11:00:14.512Z,23.60
2018-03-01T11:01:14.503Z,29.90
2018-03-01T11:03:14.967Z,22.10
2018-03-01T11:04:14.638Z,27.90
2018-03-01T11:05:14.744Z,20.30
2018-03-01T11:06:14.805Z,25.10
2018-03-01T11:07:14.584Z,20.20
2018-03-01T11:08:14.624Z,21.30
2018-03-01T11:09:17.040Z,23.20
2018-03-01T11:10:14.615Z,23.50
2018-03-01T11:11:14.629Z,18.70
2018-03-01T11:13:14.649Z,18.10
2018-03-01T11:14:14.666Z,21.40
2018-03-01T11:15:14.684Z,19.50
2018-03-01T11:16:14.713Z,22.00
2018-03-01T11:17:14.715Z,18.20
2018-03-01T11:18:14.707Z,20.00
2018-03-01T11:19:14.737Z,18.50
2018-03-01T11:22:14.763Z,26.10
2018-03-01T11:23:14.782Z,23.60
2018-03-01T11:24:14.786Z,23.60
2018-03-01T11:25:14.801Z,20.70
2018-03-01T11:26:14.805Z,19.90
2018-03-01T11:27:14.824Z,19.50
2018-03-01T11:28:14.849Z,18.10
2018-03-01T11:29:14.894Z,19.90
2018-03-01T11:30:15.190Z,21.90
2018-03-01T11:31:14.877Z,31.70
2018-03-01T11:32:14.891Z,30.90
2018-03-01T11:33:14.901Z,27.70
2018-03-01T11:34:14.922Z,23.80
2018-03-01T11:35:14.925Z,23.00
2018-03-01T11:36:14.935Z,16.20
2018-03-01T11:37:14.954Z,31.60
2018-03-01T11:38:14.956Z,36.00
2018-03-01T11:39:14.976Z,25.40
2018-03-01T11:40:15.009Z,28.60
2018-03-01T11:41:15.045Z,22.00
2018-03-01T11:42:15.022Z,18.20
2018-03-01T11:43:15.029Z,21.60
2018-03-01T11:44:15.089Z,26.80
2018-03-01T11:45:15.052Z,26.50
2018-03-01T11:46:15.072Z,32.20
2018-03-01T11:47:15.091Z,41.40
2018-03-01T11:48:15.084Z,30.00
2018-03-01T11:49:15.102Z,29.20
2018-03-01T11:50:15.115Z,21.40
2018-03-01T11:51:15.165Z,21.20
2018-03-01T11:52:15.153Z,18.00
2018-03-01T11:53:15.173Z,19.30
2018-03-01T11:54:15.446Z,23.30
2018-03-01T11:55:15.164Z,24.90
2018-03-01T11:56:15.174Z,24.80
2018-03-01T11:57:15.183Z,30.80
2018-03-01T11:58:15.199Z,24.20
2018-03-01T11:59:15.278Z,27.80
2018-03-01T12:00:15.278Z,16.50
2018-03-01T12:01:15.240Z,14.00
2018-03-01T12:02:15.242Z,17.60
2018-03-01T12:03:15.249Z,18.10
2018-03-01T12:04:15.262Z,19.60
2018-03-01T12:05:15.276Z,23.10
2018-03-01T12:06:15.288Z,20.10
2018-03-01T12:07:15.303Z,22.80
2018-03-01T12:08:15.317Z,31.10
2018-03-01T12:09:15.363Z,25.60
2018-03-01T12:10:15.334Z,22.80
2018-03-01T12:11:15.357Z,16.40
2018-03-01T12:12:15.389Z,20.50
2018-03-01T12:13:15.390Z,29.90
2018-03-01T12:14:15.391Z,29.30
2018-03-01T12:15:15.409Z,26.60
2018-03-01T12:16:15.407Z,18.60
2018-03-01T12:17:15.418Z,18.60
2018-03-01T12:18:15.442Z,25.10
2018-03-01T12:19:15.435Z,22.80
2018-03-01T12:20:15.449Z,29.70
2018-03-01T12:21:15.472Z,27.60
2018-03-01T12:22:15.488Z,23.90
2018-03-01T12:24:15.505Z,41.30
2018-03-01T12:25:15.528Z,34.00
2018-03-01T12:26:15.527Z,36.10
2018-03-01T12:27:15.560Z,24.60
2018-03-01T12:28:15.557Z,16.90
2018-03-01T12:29:15.567Z,18.70
2018-03-01T12:30:15.614Z,18.90
2018-03-01T12:31:15.612Z,21.00
2018-03-01T12:32:15.597Z,24.20
2018-03-01T12:33:15.635Z,28.90
2018-03-01T12:34:15.640Z,22.60
2018-03-01T12:35:15.653Z,23.40
2018-03-01T12:36:15.658Z,24.70
2018-03-01T12:37:15.676Z,29.10
2018-03-01T12:38:15.681Z,21.60
2018-03-01T12:39:15.702Z,20.30
2018-03-01T12:40:15.706Z,17.50
2018-03-01T12:42:15.785Z,44.40
2018-03-01T12:43:15.752Z,32.40
2018-03-01T12:44:15.759Z,28.10
2018-03-01T12:45:15.815Z,20.30
2018-03-01T12:46:15.794Z,18.50
2018-03-01T12:47:15.797Z,16.40
2018-03-01T12:48:15.824Z,26.60
2018-03-01T12:49:15.828Z,22.30
2018-03-01T12:51:15.884Z,41.00
2018-03-01T12:52:15.869Z,21.60
2018-03-01T12:53:15.886Z,18.80
2018-03-01T12:54:15.884Z,18.60
2018-03-01T12:55:15.897Z,19.60
2018-03-01T12:56:15.921Z,21.70
2018-03-01T12:57:15.928Z,19.40
2018-03-01T12:58:15.946Z,19.70
2018-03-01T12:59:15.959Z,23.40
2018-03-01T13:00:15.989Z,28.00
2018-03-01T13:01:15.973Z,30.00
2018-03-01T13:02:16.061Z,20.40
2018-03-01T13:03:16.007Z,19.30
2018-03-01T13:04:16.080Z,26.50